createdAt,value
2023-05-16T00:00:53.378Z,18.67
2023-05-16T00:03:25.660Z,19.97
2023-05-16T00:05:58.039Z,20.33
2023-05-16T00:08:29.751Z,22.60
2023-05-16T00:11:01.643Z,19.37
2023-05-16T00:13:33.332Z,22.90
2023-05-16T00:16:05.266Z,22.57
2023-05-16T00:18:37.684Z,20.33
2023-05-16T00:21:09.536Z,27.27
2023-05-16T00:23:41.220Z,25.70
2023-05-16T00:26:12.947Z,24.37
2023-05-16T00:28:44.920Z,29.80
2023-05-16T00:31:16.675Z,28.67
2023-05-16T00:33:48.548Z,29.50
2023-05-16T00:36:23.568Z,30.47
2023-05-16T00:38:56.450Z,29.10
2023-05-16T00:41:28.294Z,27.13
2023-05-16T00:44:00.055Z,31.47
2023-05-16T00:46:31.768Z,35.43
2023-05-16T00:49:04.392Z,34.43
2023-05-16T00:51:37.223Z,29.47
2023-05-16T00:54:09.022Z,32.43
2023-05-16T00:56:47.537Z,31.47
2023-05-16T00:59:20.100Z,29.50
2023-05-16T01:01:52.844Z,32.55
2023-05-16T01:04:25.472Z,32.97
2023-05-16T01:06:57.346Z,28.10
2023-05-16T01:09:29.157Z,29.60
2023-05-16T01:12:03.883Z,30.47
2023-05-16T01:15:00.474Z,32.20
2023-05-16T01:17:54.909Z,34.10
2023-05-16T01:20:44.582Z,40.33
2023-05-16T01:23:44.159Z,40.80
2023-05-16T01:26:22.525Z,37.87
2023-05-16T01:28:55.100Z,43.10
2023-05-16T01:31:26.946Z,42.50
2023-05-16T01:33:58.810Z,46.93
2023-05-16T01:36:54.925Z,47.03
2023-05-16T01:39:44.405Z,46.70
2023-05-16T01:42:17.792Z,47.27
2023-05-16T01:45:31.427Z,41.90
2023-05-16T01:48:11.076Z,45.40
2023-05-16T01:50:47.682Z,47.67
2023-05-16T01:53:23.533Z,49.27
2023-05-16T01:56:01.486Z,48.73
2023-05-16T01:58:34.948Z,47.77
2023-05-16T02:01:07.346Z,53.17
2023-05-16T02:03:39.306Z,54.33
2023-05-16T02:06:11.134Z,49.73
2023-05-16T02:08:42.885Z,54.20
2023-05-16T02:11:14.702Z,52.20
2023-05-16T02:13:46.450Z,56.67
2023-05-16T02:16:18.249Z,60.73
2023-05-16T02:18:50.014Z,56.40
2023-05-16T02:21:21.761Z,57.50
2023-05-16T02:23:53.473Z,54.08
2023-05-16T02:26:25.619Z,55.63
2023-05-16T02:28:57.323Z,47.83
2023-05-16T02:31:30.915Z,58.30
2023-05-16T02:34:03.515Z,59.87
2023-05-16T02:36:36.152Z,61.43
2023-05-16T02:39:09.830Z,57.92
2023-05-16T02:41:41.673Z,59.47
2023-05-16T02:44:13.357Z,56.60
2023-05-16T02:46:45.116Z,59.90
2023-05-16T02:49:17.083Z,68.00
2023-05-16T02:51:48.911Z,66.63
2023-05-16T02:54:20.946Z,60.03
2023-05-16T02:56:52.801Z,66.93
2023-05-16T02:59:24.483Z,63.53
2023-05-16T03:01:56.225Z,70.63
2023-05-16T03:04:28.153Z,64.27
2023-05-16T03:07:00.676Z,63.67
2023-05-16T03:09:32.361Z,75.97
2023-05-16T03:12:04.806Z,71.13
2023-05-16T03:14:37.248Z,65.53
2023-05-16T03:17:09.215Z,76.07
2023-05-16T03:19:40.911Z,66.60
2023-05-16T03:22:13.326Z,74.90
2023-05-16T03:24:45.095Z,77.17
2023-05-16T03:27:17.024Z,72.83
2023-05-16T03:29:48.721Z,67.33
2023-05-16T03:32:20.972Z,73.90
2023-05-16T03:34:52.732Z,72.93
2023-05-16T03:37:24.510Z,83.43
2023-05-16T03:39:56.295Z,72.10
2023-05-16T03:42:28.244Z,81.50
2023-05-16T03:44:59.933Z,79.55
2023-05-16T03:47:31.959Z,74.27
2023-05-16T03:50:04.390Z,73.80
2023-05-16T03:52:36.600Z,80.97
2023-05-16T03:55:09.241Z,81.87
2023-05-16T03:57:44.984Z,74.33
2023-05-16T04:00:17.282Z,80.60
2023-05-16T04:02:49.095Z,88.80
2023-05-16T04:05:21.195Z,76.23
2023-05-16T04:07:52.965Z,78.37
2023-05-16T04:10:24.978Z,88.13
2023-05-16T04:12:56.733Z,77.27
2023-05-16T04:15:28.689Z,79.23
2023-05-16T04:18:00.762Z,86.35
2023-05-16T04:20:33.059Z,84.50
2023-05-16T04:23:04.937Z,98.97
2023-05-16T04:25:36.784Z,81.20
2023-05-16T04:28:08.571Z,87.50
2023-05-16T04:30:40.485Z,85.03
2023-05-16T04:33:12.584Z,83.30
2023-05-16T04:35:44.331Z,82.57
2023-05-16T04:38:16.183Z,78.57
2023-05-16T04:40:50.811Z,81.43
2023-05-16T04:43:22.513Z,79.17
2023-05-16T04:45:54.310Z,75.87
2023-05-16T04:48:26.156Z,68.30
2023-05-16T04:50:57.911Z,83.60
2023-05-16T04:53:29.675Z,70.70
2023-05-16T04:56:01.435Z,63.53
2023-05-16T04:58:33.160Z,63.07
2023-05-16T05:01:05.108Z,72.90
2023-05-16T05:03:37.440Z,68.07
2023-05-16T05:06:09.162Z,72.30
2023-05-16T05:08:41.228Z,70.97
2023-05-16T05:11:12.971Z,65.70
2023-05-16T05:13:44.692Z,64.43
2023-05-16T05:16:16.393Z,69.20
2023-05-16T05:18:48.323Z,62.80
2023-05-16T05:21:22.064Z,83.50
2023-05-16T05:23:53.814Z,71.37
2023-05-16T05:26:26.271Z,81.10
2023-05-16T05:29:05.157Z,65.07
2023-05-16T05:31:37.718Z,73.83
2023-05-16T05:34:09.471Z,69.03
2023-05-16T05:36:41.262Z,78.27
2023-05-16T05:39:13.073Z,73.75
2023-05-16T05:41:45.968Z,76.50
2023-05-16T05:44:17.717Z,106.60
2023-05-16T05:46:49.581Z,71.20
2023-05-16T05:49:22.006Z,65.80
2023-05-16T05:51:53.972Z,71.77
2023-05-16T05:54:26.122Z,63.03
2023-05-16T05:56:58.376Z,60.23
2023-05-16T05:59:30.253Z,66.63
2023-05-16T06:02:02.005Z,65.20
2023-05-16T06:04:33.766Z,64.00
2023-05-16T06:07:05.934Z,66.63
2023-05-16T06:09:37.643Z,64.67
2023-05-16T06:12:09.732Z,61.03
2023-05-16T06:14:41.412Z,62.73
2023-05-16T06:17:13.192Z,60.33
2023-05-16T06:19:45.196Z,56.03
2023-05-16T06:22:16.948Z,58.87
2023-05-16T06:24:48.682Z,57.47
2023-05-16T06:27:20.426Z,55.15
2023-05-16T06:29:52.172Z,54.17
2023-05-16T06:32:23.995Z,55.60
2023-05-16T06:34:55.765Z,52.97
2023-05-16T06:37:27.494Z,48.50
2023-05-16T06:39:59.267Z,51.43
2023-05-16T06:42:31.264Z,47.60
2023-05-16T06:45:03.164Z,51.60
2023-05-16T06:47:34.962Z,48.23
2023-05-16T06:50:07.625Z,45.20
2023-05-16T06:52:39.453Z,48.80
2023-05-16T06:55:12.634Z,51.07
2023-05-16T06:57:44.470Z,46.67
2023-05-16T07:00:16.723Z,46.13
2023-05-16T07:02:48.502Z,39.60
2023-05-16T07:05:20.335Z,41.87
2023-05-16T07:07:52.121Z,42.80
2023-05-16T07:10:24.034Z,55.03
2023-05-16T07:12:56.538Z,43.20
2023-05-16T07:15:31.351Z,40.33
2023-05-16T07:18:03.224Z,43.43
2023-05-16T07:20:35.074Z,41.40
2023-05-16T07:23:06.826Z,42.80
2023-05-16T07:25:38.930Z,48.93
2023-05-16T07:28:10.985Z,37.43
2023-05-16T07:30:42.754Z,38.03
2023-05-16T07:33:14.586Z,39.30
2023-05-16T07:35:46.450Z,41.30
2023-05-16T07:38:18.260Z,43.13
2023-05-16T07:40:50.127Z,35.70
2023-05-16T07:43:21.897Z,35.30
2023-05-16T07:45:53.916Z,36.13
2023-05-16T07:48:25.752Z,31.07
2023-05-16T07:50:57.821Z,31.63
2023-05-16T07:53:29.595Z,32.77
2023-05-16T07:56:01.385Z,25.43
2023-05-16T07:58:33.193Z,23.73
2023-05-16T08:01:05.001Z,22.70
2023-05-16T08:03:37.514Z,23.97
2023-05-16T08:06:09.632Z,25.63
2023-05-16T08:08:41.489Z,27.53
2023-05-16T08:11:13.317Z,26.33
2023-05-16T08:13:45.168Z,31.10
2023-05-16T08:16:17.148Z,29.30
2023-05-16T08:18:49.006Z,27.07
2023-05-16T08:21:20.893Z,30.00
2023-05-16T08:23:52.675Z,24.03
2023-05-16T08:26:25.055Z,28.53
2023-05-16T08:28:56.790Z,27.93
2023-05-16T08:31:28.623Z,33.33
2023-05-16T08:34:06.467Z,27.73
2023-05-16T08:36:38.954Z,30.27
2023-05-16T08:39:11.665Z,33.80
2023-05-16T08:41:43.744Z,34.10
2023-05-16T08:44:21.380Z,37.13
2023-05-16T08:46:54.218Z,30.90
2023-05-16T08:49:29.236Z,33.57
2023-05-16T08:52:02.123Z,38.67
2023-05-16T08:54:34.348Z,38.97
2023-05-16T08:57:06.898Z,39.13
2023-05-16T08:59:38.656Z,30.87
2023-05-16T09:02:10.439Z,34.43
2023-05-16T09:04:45.037Z,33.10
2023-05-16T09:07:17.536Z,34.10
2023-05-16T09:09:49.429Z,34.90
2023-05-16T09:12:22.200Z,37.43
2023-05-16T09:14:53.962Z,36.93
2023-05-16T09:17:36.284Z,35.17
2023-05-16T09:20:19.772Z,32.53
2023-05-16T09:22:57.298Z,34.83
2023-05-16T09:25:32.027Z,33.30
2023-05-16T09:28:04.269Z,37.35
2023-05-16T09:30:37.114Z,35.50
2023-05-16T09:33:09.083Z,30.17
2023-05-16T09:35:45.369Z,30.23
2023-05-16T09:38:18.165Z,36.23
2023-05-16T09:40:51.489Z,37.13
2023-05-16T09:43:27.134Z,38.35
2023-05-16T09:45:59.974Z,36.97
2023-05-16T09:48:33.323Z,35.87
2023-05-16T09:51:08.923Z,34.77
2023-05-16T09:53:41.979Z,35.67
2023-05-16T09:56:15.242Z,35.73
2023-05-16T09:58:47.792Z,33.53
2023-05-16T10:01:20.292Z,34.43
2023-05-16T10:03:52.483Z,26.17
2023-05-16T10:06:25.757Z,27.17
2023-05-16T10:08:59.724Z,27.20
2023-05-16T10:11:33.058Z,33.57
2023-05-16T10:14:07.913Z,30.83
2023-05-16T10:16:43.817Z,26.57
2023-05-16T10:19:21.639Z,28.23
2023-05-16T10:21:59.675Z,27.60
2023-05-16T10:24:52.222Z,31.33
2023-05-16T10:27:25.636Z,32.33
2023-05-16T10:29:58.689Z,31.13
2023-05-16T10:32:31.974Z,36.17
2023-05-16T10:35:07.990Z,27.67
2023-05-16T10:37:40.479Z,33.50
2023-05-16T10:40:13.064Z,35.80
2023-05-16T10:42:57.379Z,31.33
2023-05-16T10:45:29.772Z,26.87
2023-05-16T10:48:04.828Z,31.58
2023-05-16T10:50:45.933Z,34.20
2023-05-16T10:53:29.585Z,31.47
2023-05-16T10:56:01.482Z,38.33
2023-05-16T10:58:36.356Z,25.93
2023-05-16T11:01:28.230Z,29.37
2023-05-16T11:04:03.099Z,25.20
2023-05-16T11:06:41.073Z,27.00
2023-05-16T11:09:13.724Z,26.80
2023-05-16T11:11:59.973Z,25.07
2023-05-16T11:14:34.412Z,26.50
2023-05-16T11:17:16.634Z,25.50
2023-05-16T11:19:59.089Z,26.80
2023-05-16T11:22:41.157Z,31.63
2023-05-16T11:25:12.895Z,21.30
2023-05-16T11:27:46.661Z,28.30
2023-05-16T11:30:21.992Z,27.03
2023-05-16T11:32:55.845Z,27.30
2023-05-16T11:35:28.949Z,26.00
2023-05-16T11:38:01.010Z,23.40
2023-05-16T11:40:32.836Z,26.83
2023-05-16T11:43:07.199Z,22.23
2023-05-16T11:45:39.322Z,20.93
2023-05-16T11:48:14.437Z,22.33
2023-05-16T11:50:50.956Z,24.60
2023-05-16T11:53:23.372Z,27.10
2023-05-16T11:55:56.075Z,22.70
2023-05-16T11:58:28.849Z,24.40
2023-05-16T12:01:04.392Z,25.70
2023-05-16T12:03:37.091Z,26.43
2023-05-16T12:06:09.632Z,20.47
2023-05-16T12:08:50.559Z,22.53
2023-05-16T12:11:23.826Z,24.73
2023-05-16T12:13:55.913Z,17.17
2023-05-16T12:16:27.879Z,18.83
2023-05-16T12:19:01.966Z,18.53
2023-05-16T12:21:34.039Z,23.17
2023-05-16T12:24:09.246Z,20.53
2023-05-16T12:26:43.478Z,19.53
2023-05-16T12:29:15.238Z,18.80
2023-05-16T12:31:47.586Z,19.57
2023-05-16T12:34:21.487Z,16.20
2023-05-16T12:36:54.410Z,19.30
2023-05-16T12:39:26.294Z,17.37
2023-05-16T12:42:06.368Z,17.43
2023-05-16T12:44:38.144Z,17.97
2023-05-16T12:47:13.503Z,19.80
2023-05-16T12:49:48.732Z,18.57
2023-05-16T12:52:21.769Z,14.67
2023-05-16T12:54:53.702Z,15.67
2023-05-16T12:57:25.454Z,15.82
2023-05-16T12:59:57.240Z,13.67
2023-05-16T13:02:29.136Z,14.67
2023-05-16T13:05:00.977Z,12.10
2023-05-16T13:07:32.740Z,12.47
2023-05-16T13:10:04.795Z,10.80
2023-05-16T13:12:40.804Z,10.97
2023-05-16T13:15:13.055Z,13.37
2023-05-16T13:17:44.948Z,14.13
2023-05-16T13:20:17.353Z,10.80
2023-05-16T13:22:49.224Z,17.47
2023-05-16T13:25:21.082Z,11.20
2023-05-16T13:27:52.838Z,11.53
2023-05-16T13:30:24.831Z,11.73
2023-05-16T13:32:56.923Z,10.60
2023-05-16T13:35:28.904Z,10.43
2023-05-16T13:38:00.780Z,9.10
2023-05-16T13:40:32.873Z,10.80
2023-05-16T13:43:05.385Z,9.03
2023-05-16T13:45:37.681Z,11.00
2023-05-16T13:48:09.702Z,10.40
2023-05-16T13:50:44.253Z,9.23
2023-05-16T13:53:16.521Z,11.60
2023-05-16T13:55:48.233Z,8.27
2023-05-16T13:58:20.027Z,7.93
2023-05-16T14:00:52.030Z,8.00
2023-05-16T14:03:24.306Z,7.40
2023-05-16T14:05:58.315Z,6.97
2023-05-16T14:08:30.313Z,6.27
2023-05-16T14:11:02.564Z,6.10
2023-05-16T14:13:34.385Z,8.17
2023-05-16T14:16:07.437Z,6.30
2023-05-16T14:18:39.234Z,6.95
2023-05-16T14:21:11.131Z,7.20
2023-05-16T14:23:43.167Z,8.63
2023-05-16T14:26:15.332Z,7.40
2023-05-16T14:28:47.045Z,6.57
2023-05-16T14:31:19.129Z,5.80
2023-05-16T14:33:51.388Z,6.50
2023-05-16T14:36:23.129Z,5.87
2023-05-16T14:38:54.938Z,6.47
2023-05-16T14:41:26.763Z,7.20
2023-05-16T14:43:58.473Z,8.93
2023-05-16T14:46:30.358Z,4.73
2023-05-16T14:49:02.181Z,6.03
2023-05-16T14:51:33.944Z,7.77
2023-05-16T14:54:05.853Z,5.07
2023-05-16T14:56:37.636Z,4.97
2023-05-16T14:59:09.377Z,4.90
2023-05-16T15:01:41.348Z,4.50
2023-05-16T15:04:13.118Z,5.40
2023-05-16T15:06:44.914Z,5.45
2023-05-16T15:09:17.606Z,4.20
2023-05-16T15:11:49.330Z,4.77
2023-05-16T15:14:21.061Z,4.90
2023-05-16T15:16:52.888Z,5.07
2023-05-16T15:19:25.461Z,6.97
2023-05-16T15:21:57.320Z,4.53
2023-05-16T15:24:29.138Z,4.55
2023-05-16T15:27:02.056Z,8.90
2023-05-16T15:29:33.885Z,5.20
2023-05-16T15:32:06.600Z,5.80
2023-05-16T15:34:38.452Z,5.30
2023-05-16T15:37:10.386Z,5.80
2023-05-16T15:39:42.426Z,5.82
2023-05-16T15:42:14.600Z,6.80
2023-05-16T15:44:46.609Z,5.93
2023-05-16T15:47:18.375Z,5.70
2023-05-16T15:49:50.412Z,6.80
2023-05-16T15:52:22.994Z,5.20
2023-05-16T15:54:56.055Z,5.23
2023-05-16T15:57:27.904Z,4.77
2023-05-16T15:59:59.732Z,7.27
2023-05-16T16:02:31.517Z,5.63
2023-05-16T16:05:03.441Z,5.63
2023-05-16T16:07:35.433Z,5.40
2023-05-16T16:10:07.908Z,5.93
2023-05-16T16:12:39.981Z,6.05
2023-05-16T16:15:11.959Z,14.67
2023-05-16T16:17:43.730Z,5.90
2023-05-16T16:20:15.679Z,5.27
2023-05-16T16:22:47.660Z,5.80
2023-05-16T16:25:19.639Z,5.57
2023-05-16T16:27:51.813Z,8.20
2023-05-16T16:30:23.596Z,10.53
2023-05-16T16:32:55.620Z,7.37
2023-05-16T16:35:27.650Z,5.13
2023-05-16T16:38:07.487Z,5.40
2023-05-16T16:40:39.257Z,9.93
2023-05-16T16:43:12.090Z,4.90
2023-05-16T16:45:43.850Z,7.80
2023-05-16T16:48:15.606Z,4.57
2023-05-16T16:50:47.352Z,7.40
2023-05-16T16:53:19.074Z,5.00
2023-05-16T16:55:50.766Z,5.60
2023-05-16T16:58:22.589Z,4.73
2023-05-16T17:00:54.370Z,5.10
2023-05-16T17:03:26.348Z,7.20
2023-05-16T17:05:58.815Z,6.17
2023-05-16T17:08:30.938Z,5.73
2023-05-16T17:11:05.300Z,6.30
2023-05-16T17:13:37.657Z,4.97
2023-05-16T17:16:10.641Z,10.07
2023-05-16T17:18:42.906Z,4.67
2023-05-16T17:21:14.762Z,5.43
2023-05-16T17:23:46.521Z,5.03
2023-05-16T17:26:18.335Z,7.17
2023-05-16T17:28:50.145Z,5.93
2023-05-16T17:31:22.070Z,6.20
2023-05-16T17:33:53.930Z,5.00
2023-05-16T17:36:25.800Z,4.33
2023-05-16T17:38:59.255Z,3.53
2023-05-16T17:41:31.152Z,4.20
2023-05-16T17:44:03.395Z,4.30
2023-05-16T17:46:38.258Z,5.23
2023-05-16T17:49:10.603Z,4.30
2023-05-16T17:51:46.425Z,7.60
2023-05-16T17:54:19.319Z,5.83
2023-05-16T17:56:51.177Z,5.13
2023-05-16T17:59:22.969Z,3.20
2023-05-16T18:01:57.380Z,3.60
2023-05-16T18:04:29.233Z,4.33
2023-05-16T18:07:01.516Z,8.53
2023-05-16T18:09:33.842Z,4.90
2023-05-16T18:12:06.209Z,5.90
2023-05-16T18:14:37.993Z,4.73
2023-05-16T18:17:09.846Z,6.23
2023-05-16T18:19:41.770Z,3.47
2023-05-16T18:22:13.912Z,12.15
2023-05-16T18:24:45.918Z,3.73
2023-05-16T18:27:17.663Z,4.87
2023-05-16T18:29:49.446Z,5.07
2023-05-16T18:32:21.295Z,4.40
2023-05-16T18:34:53.141Z,3.63
2023-05-16T18:37:25.010Z,5.57
2023-05-16T18:39:56.784Z,4.80
2023-05-16T18:42:28.878Z,5.57
2023-05-16T18:45:00.712Z,5.57
2023-05-16T18:47:32.554Z,3.40
2023-05-16T18:50:04.662Z,4.70
2023-05-16T18:52:36.918Z,9.50
2023-05-16T18:55:08.981Z,4.15
2023-05-16T18:57:41.135Z,12.90
2023-05-16T19:00:13.297Z,23.07
2023-05-16T19:02:45.068Z,5.53
2023-05-16T19:05:17.179Z,6.90
2023-05-16T19:07:49.067Z,4.80
2023-05-16T19:10:20.948Z,3.73
2023-05-16T19:12:52.753Z,3.20
2023-05-16T19:15:24.563Z,5.00
2023-05-16T19:17:56.443Z,6.90
2023-05-16T19:20:28.627Z,3.30
2023-05-16T19:23:01.328Z,4.60
2023-05-16T19:25:33.411Z,2.70
2023-05-16T19:28:05.571Z,4.90
2023-05-16T19:30:39.319Z,3.30
2023-05-16T19:33:11.323Z,2.73
2023-05-16T19:35:43.215Z,2.80
2023-05-16T19:38:14.959Z,3.23
2023-05-16T19:40:47.002Z,7.83
2023-05-16T19:43:19.002Z,4.13
2023-05-16T19:45:50.916Z,4.80
2023-05-16T19:48:22.822Z,20.80
2023-05-16T19:50:54.693Z,2.50
2023-05-16T19:53:26.719Z,3.63
2023-05-16T19:55:58.468Z,2.53
2023-05-16T19:58:30.388Z,5.47
2023-05-16T20:01:02.163Z,5.00
2023-05-16T20:03:34.030Z,3.03
2023-05-16T20:06:06.510Z,4.30
2023-05-16T20:08:38.237Z,5.70
2023-05-16T20:11:10.033Z,4.10
2023-05-16T20:13:41.835Z,2.97
2023-05-16T20:16:13.775Z,3.67
2023-05-16T20:18:46.737Z,3.67
2023-05-16T20:21:18.667Z,4.50
2023-05-16T20:23:50.517Z,3.00
2023-05-16T20:26:22.335Z,5.47
2023-05-16T20:28:54.091Z,2.40
2023-05-16T20:31:25.996Z,6.70
2023-05-16T20:33:57.852Z,7.70
2023-05-16T20:36:29.692Z,5.93
2023-05-16T20:39:01.512Z,6.47
2023-05-16T20:41:33.279Z,3.63
2023-05-16T20:44:06.677Z,7.77
2023-05-16T20:46:40.404Z,3.10
2023-05-16T20:49:12.327Z,2.72
2023-05-16T20:51:44.136Z,5.43
2023-05-16T20:54:17.050Z,12.70
2023-05-16T20:56:48.804Z,5.40
2023-05-16T20:59:20.631Z,3.30
2023-05-16T21:01:52.665Z,2.80
2023-05-16T21:04:24.763Z,2.40
2023-05-16T21:06:56.565Z,4.80
2023-05-16T21:09:28.278Z,2.40
2023-05-16T21:12:00.300Z,4.40
2023-05-16T21:14:32.102Z,7.73
2023-05-16T21:17:03.970Z,3.80
2023-05-16T21:19:37.692Z,5.23
2023-05-16T21:22:09.517Z,3.00
2023-05-16T21:24:41.686Z,6.47
2023-05-16T21:27:13.461Z,4.03
2023-05-16T21:29:45.265Z,2.80
2023-05-16T21:32:17.017Z,4.37
2023-05-16T21:34:49.053Z,4.20
2023-05-16T21:37:21.570Z,2.80
2023-05-16T21:39:53.390Z,3.77
2023-05-16T21:42:25.225Z,3.67
2023-05-16T21:44:56.981Z,5.07
2023-05-16T21:47:28.745Z,4.00
2023-05-16T21:50:00.518Z,3.20
2023-05-16T21:52:32.278Z,2.57
2023-05-16T21:55:05.789Z,4.50
2023-05-16T21:57:37.788Z,5.83
2023-05-16T22:00:10.259Z,3.10
2023-05-16T22:02:42.087Z,3.40
2023-05-16T22:05:14.627Z,4.80
2023-05-16T22:07:46.701Z,2.75
2023-05-16T22:10:18.758Z,3.50
2023-05-16T22:12:50.552Z,3.10
2023-05-16T22:15:22.357Z,2.57
2023-05-16T22:17:54.355Z,2.30
2023-05-16T22:20:26.803Z,6.63
2023-05-16T22:22:58.632Z,6.57
2023-05-16T22:25:30.729Z,5.13
2023-05-16T22:28:02.552Z,2.90
2023-05-16T22:30:34.302Z,2.73
2023-05-16T22:33:06.347Z,3.27
2023-05-16T22:35:38.142Z,6.07
2023-05-16T22:38:09.872Z,3.20
2023-05-16T22:40:41.632Z,5.70
2023-05-16T22:43:13.459Z,3.53
2023-05-16T22:45:45.525Z,8.43
2023-05-16T22:48:17.375Z,3.50
2023-05-16T22:50:49.208Z,2.90
2023-05-16T22:53:21.013Z,3.53
2023-05-16T22:55:52.759Z,3.20
2023-05-16T22:58:24.577Z,2.20
2023-05-16T23:00:57.994Z,4.27
2023-05-16T23:03:29.936Z,6.30
2023-05-16T23:06:01.816Z,6.23
2023-05-16T23:08:33.661Z,2.93
2023-05-16T23:11:05.508Z,2.97
2023-05-16T23:13:37.323Z,3.23
2023-05-16T23:16:09.077Z,4.00
2023-05-16T23:18:41.105Z,3.37
2023-05-16T23:21:12.936Z,4.10
2023-05-16T23:23:44.693Z,14.23
2023-05-16T23:26:16.509Z,3.90
2023-05-16T23:28:48.272Z,2.93
2023-05-16T23:31:20.038Z,4.10
2023-05-16T23:33:51.883Z,6.40
2023-05-16T23:36:23.620Z,3.63
2023-05-16T23:38:55.372Z,2.40
2023-05-16T23:41:27.094Z,2.90
2023-05-16T23:43:58.817Z,3.03
2023-05-16T23:46:30.513Z,4.00
2023-05-16T23:49:02.312Z,6.90
2023-05-16T23:51:52.224Z,5.00
2023-05-16T23:54:26.391Z,4.80
2023-05-16T23:56:58.146Z,3.97
2023-05-16T23:59:29.930Z,5.63
